createdAt,value
2023-02-19T00:00:15.655Z,110.281567
2023-02-19T00:05:15.734Z,95.311029
2023-02-19T00:10:16.544Z,85.710412
2023-02-19T00:15:15.919Z,81.095974
2023-02-19T00:20:16.044Z,67.812365
2023-02-19T00:25:18.572Z,60.164966
2023-02-19T00:30:16.007Z,50.116898
2023-02-19T00:35:15.825Z,42.953352
2023-02-19T00:40:16.439Z,27.637063
2023-02-19T00:45:17.256Z,20.655424
2023-02-19T00:50:16.290Z,20.720588
2023-02-19T00:55:16.438Z,18.834857
2023-02-19T01:00:16.503Z,16.330109
2023-02-19T01:05:16.906Z,10.618379
2023-02-19T01:10:15.851Z,6.577877
2023-02-19T01:15:16.640Z,5.135643
2023-02-19T01:20:19.080Z,4.396707
2023-02-19T01:25:16.038Z,3.873749
2023-02-19T01:30:16.352Z,1.800663
2023-02-19T01:35:20.241Z,0.232723
2023-02-19T01:40:18.570Z,0.006891
2023-02-19T01:45:16.059Z,0.004573
2023-02-19T01:50:18.702Z,0.000000
2023-02-19T01:55:16.836Z,0.000000
2023-02-19T02:00:17.467Z,0.000000
2023-02-19T02:05:17.987Z,0.000000
2023-02-19T02:10:21.959Z,0.000000
2023-02-19T02:15:16.645Z,0.000000
2023-02-19T02:20:15.927Z,0.000000
2023-02-19T02:25:15.671Z,0.000000
2023-02-19T02:30:16.109Z,0.000000
2023-02-19T02:35:17.043Z,0.000000
2023-02-19T02:40:15.536Z,0.000000
2023-02-19T02:45:16.495Z,0.000000
2023-02-19T02:50:16.208Z,0.000000
2023-02-19T02:55:16.466Z,0.000000
2023-02-19T03:00:20.727Z,0.000000
2023-02-19T03:05:15.870Z,0.000000
2023-02-19T03:10:16.161Z,0.000000
2023-02-19T03:15:16.538Z,0.000000
2023-02-19T03:20:16.217Z,0.000000
2023-02-19T03:25:16.195Z,0.000000
2023-02-19T03:30:15.888Z,0.000000
2023-02-19T03:35:17.458Z,0.000000
2023-02-19T03:40:15.744Z,0.000000
2023-02-19T03:45:16.871Z,0.000000
2023-02-19T03:50:17.114Z,0.000000
2023-02-19T03:55:18.012Z,0.000000
2023-02-19T04:00:16.130Z,0.000000
2023-02-19T04:05:16.549Z,0.000000
2023-02-19T04:10:15.497Z,0.000000
2023-02-19T04:15:15.567Z,0.000000
2023-02-19T04:20:16.429Z,0.000000
2023-02-19T04:25:15.749Z,0.000000
2023-02-19T04:30:16.488Z,0.000000
2023-02-19T04:35:15.963Z,0.000000
2023-02-19T04:40:18.820Z,0.000000
2023-02-19T04:45:16.855Z,0.000000
2023-02-19T04:50:15.701Z,0.000000
2023-02-19T04:55:16.189Z,0.000000
2023-02-19T05:00:16.291Z,0.000000
2023-02-19T05:05:16.634Z,0.000000
2023-02-19T05:10:18.097Z,0.000000
2023-02-19T05:15:16.373Z,0.000000
2023-02-19T05:20:16.304Z,0.000000
2023-02-19T05:25:18.088Z,0.000000
2023-02-19T05:30:17.133Z,0.000000
2023-02-19T05:35:15.826Z,0.000000
2023-02-19T05:40:16.309Z,0.000000
2023-02-19T05:45:16.260Z,0.000000
2023-02-19T05:50:15.823Z,0.000000
2023-02-19T05:55:16.123Z,0.000000
2023-02-19T06:00:15.588Z,0.000000
2023-02-19T06:05:16.008Z,0.000000
2023-02-19T06:10:18.026Z,0.000000
2023-02-19T06:15:25.866Z,0.000000
2023-02-19T06:20:16.260Z,0.000000
2023-02-19T06:25:17.185Z,0.000000
2023-02-19T06:30:22.679Z,0.000000
2023-02-19T06:35:23.126Z,0.000000
2023-02-19T06:40:17.619Z,0.000000
2023-02-19T06:45:17.969Z,0.000000
2023-02-19T06:50:15.917Z,0.000000
2023-02-19T06:55:15.614Z,0.000000
2023-02-19T07:00:17.079Z,0.000000
2023-02-19T07:05:16.219Z,0.000000
2023-02-19T07:10:16.339Z,0.000000
2023-02-19T07:15:18.320Z,0.000000
2023-02-19T07:20:16.805Z,0.000000
2023-02-19T07:25:16.922Z,0.000000
2023-02-19T07:30:17.479Z,0.000000
2023-02-19T07:35:16.057Z,0.000000
2023-02-19T07:40:16.664Z,0.000000
2023-02-19T07:45:15.692Z,0.000000
2023-02-19T07:50:16.968Z,0.000000
2023-02-19T07:55:15.999Z,0.000000
2023-02-19T08:00:17.385Z,0.000000
2023-02-19T08:05:15.564Z,0.000000
2023-02-19T08:10:15.718Z,0.000000
2023-02-19T08:15:15.640Z,0.000000
2023-02-19T08:20:17.802Z,0.000000
2023-02-19T08:25:15.886Z,0.000000
2023-02-19T08:30:16.585Z,0.000000
2023-02-19T08:35:16.553Z,0.000000
2023-02-19T08:40:20.937Z,0.000000
2023-02-19T08:45:15.981Z,0.000000
2023-02-19T08:50:21.260Z,0.000000
2023-02-19T08:55:16.349Z,0.000000
2023-02-19T09:00:15.921Z,0.000000
2023-02-19T09:05:20.954Z,0.000000
2023-02-19T09:10:16.380Z,0.000000
2023-02-19T09:15:16.834Z,0.000000
2023-02-19T09:20:15.644Z,0.000000
2023-02-19T09:25:16.093Z,0.000000
2023-02-19T09:30:16.707Z,0.000000
2023-02-19T09:35:16.446Z,0.000000
2023-02-19T09:40:21.416Z,0.000000
2023-02-19T09:45:15.549Z,0.000000
2023-02-19T09:50:15.910Z,0.000000
2023-02-19T09:55:15.931Z,0.000000
2023-02-19T10:00:16.096Z,0.000000
2023-02-19T10:05:16.539Z,0.000000
2023-02-19T10:10:15.906Z,0.000000
2023-02-19T10:15:16.313Z,0.000000
2023-02-19T10:20:16.239Z,0.000000
2023-02-19T10:25:16.810Z,0.000000
2023-02-19T10:30:17.414Z,0.000000
2023-02-19T10:35:20.829Z,0.000000
2023-02-19T10:40:15.902Z,0.000000
2023-02-19T10:45:16.203Z,0.000000
2023-02-19T10:50:16.237Z,0.000000
2023-02-19T10:55:16.482Z,0.000000
2023-02-19T11:00:15.997Z,0.000000
2023-02-19T11:05:15.738Z,0.002229
2023-02-19T11:10:16.501Z,0.000000
2023-02-19T11:15:17.354Z,0.000000
2023-02-19T11:20:16.782Z,0.000000
2023-02-19T11:25:16.289Z,0.000000
2023-02-19T11:30:15.946Z,0.000000
2023-02-19T11:35:16.291Z,0.000000
2023-02-19T11:40:17.255Z,0.000000
2023-02-19T11:45:16.400Z,0.000000
2023-02-19T11:50:16.161Z,0.000000
2023-02-19T11:55:16.327Z,0.000000
2023-02-19T12:00:16.080Z,0.000000
2023-02-19T12:05:16.638Z,0.000000
2023-02-19T12:10:16.817Z,0.000000
2023-02-19T12:15:16.423Z,0.000000
2023-02-19T12:20:15.659Z,0.000000
2023-02-19T12:25:16.714Z,0.000000
2023-02-19T12:30:16.826Z,0.000000
2023-02-19T12:35:17.525Z,0.000000
2023-02-19T12:40:16.688Z,0.000000
2023-02-19T12:45:16.642Z,0.000000
2023-02-19T12:50:17.244Z,0.000000
2023-02-19T12:55:16.395Z,0.000000
2023-02-19T13:00:16.270Z,0.000000
2023-02-19T13:05:16.483Z,0.000000
2023-02-19T13:10:20.986Z,0.000000
2023-02-19T13:15:15.620Z,0.000000
2023-02-19T13:20:16.456Z,0.000000
2023-02-19T13:25:16.529Z,0.000000
2023-02-19T13:30:16.012Z,0.000000
2023-02-19T13:35:16.865Z,0.000000
2023-02-19T13:40:16.878Z,0.000000
2023-02-19T13:45:21.842Z,0.000000
2023-02-19T13:50:16.368Z,0.000000
2023-02-19T13:55:16.414Z,0.000000
2023-02-19T14:00:15.944Z,0.000000
2023-02-19T14:05:16.999Z,0.000000
2023-02-19T14:10:16.237Z,0.000000
2023-02-19T14:15:16.903Z,0.000000
2023-02-19T14:20:17.632Z,0.000000
2023-02-19T14:25:15.813Z,0.000000
2023-02-19T14:30:16.487Z,0.000000
2023-02-19T14:35:15.752Z,0.000000
2023-02-19T14:40:16.097Z,0.000000
2023-02-19T14:45:16.724Z,0.000000
2023-02-19T14:50:16.452Z,0.000000
2023-02-19T14:55:17.738Z,0.000000
2023-02-19T15:00:17.210Z,0.000000
2023-02-19T15:05:16.633Z,0.002239
2023-02-19T15:10:16.550Z,0.000000
2023-02-19T15:15:16.504Z,0.000000
2023-02-19T15:20:16.688Z,0.004499
2023-02-19T15:25:15.948Z,0.469136
2023-02-19T15:30:17.484Z,1.878325
2023-02-19T15:35:16.521Z,3.389342
2023-02-19T15:40:16.860Z,5.435956
2023-02-19T15:45:17.250Z,6.177391
2023-02-19T15:50:16.248Z,7.327887
2023-02-19T15:55:16.712Z,6.113017
2023-02-19T16:00:17.025Z,4.071241
2023-02-19T16:05:16.871Z,6.753356
2023-02-19T16:10:16.476Z,14.289771
2023-02-19T16:15:17.203Z,19.096465
2023-02-19T16:20:16.036Z,19.786025
2023-02-19T16:25:17.804Z,22.426080
2023-02-19T16:30:16.430Z,30.019424
2023-02-19T16:35:17.131Z,29.510350
2023-02-19T16:40:17.656Z,30.524618
2023-02-19T16:45:16.890Z,32.717336
2023-02-19T16:50:15.684Z,38.701448
2023-02-19T16:55:16.564Z,52.491550
2023-02-19T17:00:16.677Z,49.685371
2023-02-19T17:05:15.972Z,45.548487
2023-02-19T17:10:15.789Z,44.285068
2023-02-19T17:15:18.523Z,40.525467
2023-02-19T17:20:16.951Z,53.474345
2023-02-19T17:25:16.629Z,68.563609
2023-02-19T17:30:16.478Z,61.533572
2023-02-19T17:35:16.118Z,74.538478
2023-02-19T17:40:23.957Z,67.783481
2023-02-19T17:45:16.648Z,80.999417
2023-02-19T17:50:15.863Z,70.889622
2023-02-19T17:55:16.878Z,61.111128
2023-02-19T18:00:17.072Z,70.429031
2023-02-19T18:05:16.104Z,59.404454
2023-02-19T18:10:15.726Z,49.762417
2023-02-19T18:15:16.475Z,57.344580
2023-02-19T18:20:17.427Z,61.003962
2023-02-19T18:25:16.336Z,71.743194
2023-02-19T18:30:16.448Z,64.911587
2023-02-19T18:35:15.652Z,87.352035
2023-02-19T18:40:16.923Z,73.783000
2023-02-19T18:45:16.590Z,102.397367
2023-02-19T18:50:18.796Z,149.207425
2023-02-19T18:55:16.477Z,145.129449
2023-02-19T19:00:16.832Z,98.327454
2023-02-19T19:05:15.822Z,82.769519
2023-02-19T19:10:16.037Z,75.304946
2023-02-19T19:15:18.273Z,65.576211
2023-02-19T19:20:18.642Z,70.546891
2023-02-19T19:25:19.393Z,76.171234
2023-02-19T19:30:16.212Z,118.746818
2023-02-19T19:35:16.706Z,128.780281
2023-02-19T19:40:16.496Z,106.488316
2023-02-19T19:45:15.902Z,102.340145
2023-02-19T19:50:17.239Z,139.916802
2023-02-19T19:55:16.266Z,99.010706
2023-02-19T20:00:16.392Z,89.735326
2023-02-19T20:05:16.111Z,73.527722
2023-02-19T20:10:16.295Z,69.662220
2023-02-19T20:15:15.668Z,53.779866
2023-02-19T20:20:15.757Z,64.368265
2023-02-19T20:25:16.419Z,79.372366
2023-02-19T20:30:16.347Z,102.106849
2023-02-19T20:35:16.599Z,149.733212
2023-02-19T20:40:17.420Z,104.892365
2023-02-19T20:45:18.224Z,87.769783
2023-02-19T20:50:17.313Z,92.226579
2023-02-19T20:55:16.544Z,74.428770
2023-02-19T21:00:16.070Z,64.535617
2023-02-19T21:05:21.135Z,54.854117
2023-02-19T21:10:16.591Z,62.520966
2023-02-19T21:15:16.022Z,63.703332
2023-02-19T21:20:17.115Z,64.349718
2023-02-19T21:25:21.128Z,60.130826
2023-02-19T21:30:16.350Z,73.262501
2023-02-19T21:35:17.361Z,71.452872
2023-02-19T21:40:16.639Z,75.744163
2023-02-19T21:45:16.737Z,76.894315
2023-02-19T21:50:16.553Z,100.391662
2023-02-19T21:55:16.043Z,98.272273
2023-02-19T22:00:16.233Z,64.929652
2023-02-19T22:05:22.711Z,48.507264
2023-02-19T22:10:21.296Z,59.333394
2023-02-19T22:15:16.788Z,59.720896
2023-02-19T22:20:16.605Z,55.489946
2023-02-19T22:25:17.604Z,49.687286
2023-02-19T22:30:16.639Z,43.891648
2023-02-19T22:35:17.186Z,40.373212
2023-02-19T22:40:17.671Z,39.881286
2023-02-19T22:45:15.825Z,48.081631
2023-02-19T22:50:15.836Z,44.480300
2023-02-19T22:55:15.961Z,41.202216
2023-02-19T23:00:16.908Z,43.427541
2023-02-19T23:05:15.714Z,41.102644
2023-02-19T23:10:17.021Z,34.604039
2023-02-19T23:15:16.096Z,34.171391
2023-02-19T23:20:16.544Z,31.913798
2023-02-19T23:25:16.007Z,37.724772
2023-02-19T23:30:16.331Z,51.358140
2023-02-19T23:35:16.046Z,38.507365
2023-02-19T23:40:16.410Z,30.246361
2023-02-19T23:45:19.128Z,30.829858
2023-02-19T23:50:16.009Z,29.228518
2023-02-19T23:55:15.760Z,25.684151
